Time;durP1;ratioP1;P1;durP2;ratioP2;P2;SDS_P1;SDS_P2;PMS_P1;PMS_P2;Temp;Humidity;BMP_temperature;BMP_pressure;BME280_temperature;BME280_humidity;BME280_pressure;Samples;Min_cycle;Max_cycle;Signal;HPM_P1;HPM_P2
2022/03/27 08:14:19;;;;;;;30.38;18.05;;;10.30;99.90;;;;;;5070879;28;20546;-68
2022/03/27 08:16:45;;;;;;;35.60;18.80;;;10.40;99.90;;;;;;5071212;28;20176;-68
2022/03/27 08:19:10;;;;;;;32.63;18.63;;;10.40;99.90;;;;;;5071084;28;20226;-68
2022/03/27 08:21:39;;;;;;;27.17;16.58;;;10.50;99.90;;;;;;5069710;28;20176;-68
2022/03/27 08:24:05;;;;;;;28.65;17.17;;;10.60;99.90;;;;;;5070865;28;20494;-70
2022/03/27 08:29:15;;;;;;;23.73;15.52;;;10.90;99.90;;;;;;5069758;28;20176;-69
2022/03/27 08:31:41;;;;;;;21.55;14.93;;;10.90;99.90;;;;;;5070388;28;20160;-69
2022/03/27 08:34:06;;;;;;;23.50;15.45;;;10.90;99.90;;;;;;5070264;28;20192;-69
2022/03/27 08:36:32;;;;;;;24.40;15.43;;;11.00;99.90;;;;;;5070366;28;20169;-69
2022/03/27 08:38:57;;;;;;;25.65;15.43;;;11.10;99.90;;;;;;5070321;28;20180;-69
2022/03/27 08:41:23;;;;;;;21.15;14.68;;;11.10;99.90;;;;;;5070224;28;20678;-69
2022/03/27 08:43:58;;;;;;;21.85;16.10;;;11.20;99.90;;;;;;5070161;28;20169;-69
2022/03/27 08:46:27;;;;;;;23.08;14.95;;;11.30;99.90;;;;;;5070149;28;20172;-69
2022/03/27 08:48:58;;;;;;;24.05;15.02;;;11.30;99.90;;;;;;5070021;28;20184;-69
2022/03/27 08:51:39;;;;;;;21.63;14.63;;;11.30;99.90;;;;;;5069981;28;20173;-69
2022/03/27 08:54:21;;;;;;;22.35;14.77;;;11.10;99.90;;;;;;5069879;28;20193;-69
2022/03/27 08:56:57;;;;;;;20.40;14.63;;;11.10;99.90;;;;;;5069879;28;20181;-69
2022/03/27 08:59:23;;;;;;;22.80;15.13;;;11.30;99.90;;;;;;5069845;28;20169;-69
2022/03/27 09:01:49;;;;;;;21.15;15.32;;;11.00;99.90;;;;;;5069823;28;20165;-69
2022/03/27 09:04:15;;;;;;;21.98;14.02;;;11.10;99.90;;;;;;5069736;28;20533;-69
2022/03/27 09:06:40;;;;;;;22.75;15.77;;;11.00;99.90;;;;;;5069736;28;20168;-69
2022/03/27 09:09:06;;;;;;;24.20;14.18;;;11.00;99.90;;;;;;5069487;28;20199;-69
2022/03/27 09:11:34;;;;;;;25.13;15.00;;;10.90;99.90;;;;;;5069648;28;20180;-69
2022/03/27 09:14:03;;;;;;;21.92;13.23;;;10.80;99.90;;;;;;5069579;28;20216;-69
2022/03/27 09:16:28;;;;;;;21.08;13.63;;;10.80;99.90;;;;;;5069825;28;20172;-69
2022/03/27 09:18:58;;;;;;;19.75;12.70;;;10.70;99.90;;;;;;5068511;28;20169;-69
2022/03/27 09:21:27;;;;;;;21.33;13.50;;;10.70;99.90;;;;;;5069627;28;20167;-69
2022/03/27 09:23:59;;;;;;;21.23;14.05;;;10.80;99.90;;;;;;5066437;28;20707;-69
2022/03/27 09:26:26;;;;;;;19.38;14.45;;;10.80;99.90;;;;;;5056324;28;20644;-69
2022/03/27 09:28:57;;;;;;;20.42;13.65;;;10.80;99.90;;;;;;5056659;28;20176;-69
2022/03/27 09:31:28;;;;;;;20.77;13.68;;;10.80;99.90;;;;;;5056390;28;20180;-69
2022/03/27 09:34:00;;;;;;;19.92;14.48;;;10.80;99.90;;;;;;5056006;28;20193;-69
2022/03/27 09:36:39;;;;;;;19.15;13.80;;;10.90;99.90;;;;;;5054936;28;20173;-69
2022/03/27 09:39:20;;;;;;;20.25;13.70;;;10.90;99.90;;;;;;5055857;28;20160;-70
2022/03/27 09:41:54;;;;;;;18.92;13.45;;;10.90;99.90;;;;;;5056028;28;20161;-70
2022/03/27 09:44:22;;;;;;;18.67;13.45;;;11.00;99.90;;;;;;5056048;28;20164;-70
2022/03/27 09:47:08;;;;;;;20.38;14.18;;;11.00;99.90;;;;;;5055917;28;20219;-70
2022/03/27 09:49:34;;;;;;;17.38;13.30;;;11.10;99.90;;;;;;5055819;28;20172;-70
2022/03/27 10:09:22;;;;;;;16.88;12.32;;;11.40;99.90;;;;;;5091045;28;21186;-69
2022/03/27 10:11:51;;;;;;;22.55;12.68;;;11.50;99.90;;;;;;5091225;28;20181;-69
2022/03/27 10:14:17;;;;;;;21.20;13.95;;;11.60;99.90;;;;;;5090880;28;20270;-69
2022/03/27 10:16:47;;;;;;;20.65;14.20;;;11.60;99.90;;;;;;5090735;28;20175;-68
2022/03/27 10:19:34;;;;;;;17.63;13.18;;;11.70;99.90;;;;;;5091112;28;20214;-68
2022/03/27 10:22:11;;;;;;;27.40;15.95;;;11.80;99.90;;;;;;5090709;28;20167;-68
2022/03/27 10:24:40;;;;;;;21.35;14.98;;;11.90;99.90;;;;;;5089171;28;20179;-68
2022/03/27 10:27:06;;;;;;;22.98;15.43;;;12.00;99.90;;;;;;5089546;28;20194;-68
2022/03/27 10:29:33;;;;;;;22.67;16.10;;;12.00;99.90;;;;;;5090118;28;20164;-67
2022/03/27 10:32:04;;;;;;;21.95;15.60;;;12.10;99.90;;;;;;5089250;28;20171;-69
2022/03/27 10:34:35;;;;;;;20.75;14.90;;;12.10;99.90;;;;;;5090420;28;20218;-69
2022/03/27 10:37:12;;;;;;;22.48;14.65;;;12.20;99.90;;;;;;5090465;28;20172;-69
2022/03/27 10:39:51;;;;;;;29.35;16.25;;;12.20;99.90;;;;;;5090408;28;20656;-69
2022/03/27 10:42:30;;;;;;;21.58;15.07;;;12.20;99.90;;;;;;5088968;28;20202;-69
2022/03/27 10:45:06;;;;;;;25.75;15.68;;;12.30;99.90;;;;;;5090314;28;20172;-69
2022/03/27 10:47:31;;;;;;;21.02;14.95;;;12.30;99.90;;;;;;5090147;28;20665;-67
2022/03/27 10:50:08;;;;;;;25.73;16.30;;;12.30;99.90;;;;;;5088845;28;20176;-67
2022/03/27 10:52:42;;;;;;;25.80;16.02;;;12.40;99.90;;;;;;5090229;28;20221;-68
2022/03/27 10:55:11;;;;;;;24.80;15.00;;;12.40;99.90;;;;;;5090050;28;20171;-68
2022/03/27 10:57:45;;;;;;;23.77;16.17;;;12.40;99.90;;;;;;5090067;28;20167;-69
2022/03/27 11:00:12;;;;;;;24.33;14.80;;;12.40;99.90;;;;;;5090040;28;20258;-69
2022/03/27 11:02:45;;;;;;;23.00;14.90;;;12.50;99.90;;;;;;5089876;28;20186;-69
2022/03/27 11:05:30;;;;;;;19.85;14.88;;;12.50;99.90;;;;;;5089877;28;20222;-69
2022/03/27 11:08:19;;;;;;;24.65;14.82;;;12.50;99.90;;;;;;5089498;28;20251;-69
2022/03/27 11:10:45;;;;;;;23.17;14.52;;;12.40;99.90;;;;;;5078069;28;20180;-69
2022/03/27 11:13:26;;;;;;;23.40;15.52;;;12.50;99.90;;;;;;5089728;28;20168;-69
2022/03/27 11:16:11;;;;;;;24.75;14.75;;;12.60;99.90;;;;;;5089902;28;20175;-69
2022/03/27 11:18:41;;;;;;;19.85;14.25;;;12.60;99.90;;;;;;5087283;28;20263;-69
2022/03/27 11:21:09;;;;;;;23.40;15.02;;;12.70;99.90;;;;;;5076195;28;20165;-69
2022/03/27 11:23:38;;;;;;;21.27;14.60;;;12.60;99.90;;;;;;5076205;28;20176;-69
2022/03/27 11:26:23;;;;;;;22.27;14.80;;;12.70;99.90;;;;;;5076239;28;20167;-69
2022/03/27 11:28:51;;;;;;;20.17;13.73;;;12.80;99.90;;;;;;5074425;28;20238;-69
2022/03/27 11:31:30;;;;;;;20.60;13.27;;;12.80;99.90;;;;;;5076160;28;20172;-69
2022/03/27 11:34:17;;;;;;;26.77;15.18;;;12.80;99.90;;;;;;5076088;28;20167;-69
2022/03/27 11:37:06;;;;;;;19.38;13.57;;;12.90;99.90;;;;;;5076119;28;20552;-69
2022/03/27 11:39:35;;;;;;;21.80;13.52;;;12.90;99.90;;;;;;5075935;28;20172;-69
2022/03/27 11:42:28;;;;;;;20.45;12.40;;;12.90;99.90;;;;;;5075792;28;20642;-69
2022/03/27 11:45:12;;;;;;;16.73;11.77;;;13.00;99.90;;;;;;5075992;28;20564;-69
2022/03/27 11:47:44;;;;;;;15.93;11.35;;;13.00;99.90;;;;;;5075667;28;20192;-69
2022/03/27 11:50:29;;;;;;;16.92;12.35;;;13.10;99.90;;;;;;5075668;28;20176;-69
2022/03/27 11:52:56;;;;;;;16.50;12.90;;;13.10;99.90;;;;;;5075750;28;20172;-69
2022/03/27 11:55:22;;;;;;;16.17;11.07;;;13.20;99.90;;;;;;5075681;28;20492;-69
2022/03/27 11:57:56;;;;;;;17.20;11.60;;;13.20;99.90;;;;;;5075636;28;20176;-69
2022/03/27 12:00:39;;;;;;;16.13;11.50;;;13.30;99.90;;;;;;5075625;28;20175;-69
2022/03/27 12:03:18;;;;;;;18.20;11.57;;;13.40;99.90;;;;;;5075465;28;20164;-69
2022/03/27 12:05:47;;;;;;;11.95;10.27;;;13.30;99.90;;;;;;5075387;28;20207;-69
2022/03/27 12:08:17;;;;;;;13.65;9.32;;;13.50;99.90;;;;;;5075171;28;20227;-69
2022/03/27 12:10:49;;;;;;;8.95;7.95;;;13.50;99.90;;;;;;5075415;28;20511;-69
2022/03/27 12:13:15;;;;;;;12.27;9.02;;;13.60;99.90;;;;;;5075155;28;20172;-69
2022/03/27 12:15:49;;;;;;;10.82;8.95;;;13.60;99.90;;;;;;5075129;28;20168;-69
2022/03/27 12:18:39;;;;;;;8.85;7.68;;;13.50;99.90;;;;;;5075390;28;20172;-70
2022/03/27 12:21:08;;;;;;;9.68;8.68;;;13.80;99.90;;;;;;5073941;28;20172;-70
2022/03/27 12:23:37;;;;;;;12.48;9.18;;;13.90;99.90;;;;;;5075132;28;20218;-70
2022/03/27 12:31:57;;;;;;;16.08;8.50;;;14.30;99.90;;;;;;5074024;28;20204;-69
2022/03/27 12:34:24;;;;;;;11.18;8.20;;;14.30;99.90;;;;;;5074667;28;20192;-70
2022/03/27 12:37:24;;;;;;;11.25;7.50;;;14.40;99.90;;;;;;5072449;28;20175;-70
2022/03/27 12:39:50;;;;;;;8.30;7.47;;;14.40;99.90;;;;;;5061711;28;20177;-70
2022/03/27 12:42:46;;;;;;;7.43;6.72;;;14.50;99.90;;;;;;5074380;28;20659;-70
2022/03/27 12:45:23;;;;;;;7.43;6.72;;;14.50;99.90;;;;;;5074217;28;20263;-70
2022/03/27 12:47:58;;;;;;;7.18;6.57;;;14.60;99.90;;;;;;5072977;28;20310;-69
2022/03/27 12:50:34;;;;;;;6.55;6.05;;;14.70;99.90;;;;;;5073507;28;20512;-68
2022/03/27 12:53:13;;;;;;;6.55;6.05;;;14.80;99.90;;;;;;5073265;28;20172;-68
2022/03/27 12:55:49;;;;;;;6.70;6.07;;;15.00;99.90;;;;;;5074267;28;20168;-68
2022/03/27 12:58:17;;;;;;;6.13;5.57;;;15.10;99.90;;;;;;5074437;28;20167;-67
2022/03/27 13:00:44;;;;;;;7.57;6.93;;;15.10;99.90;;;;;;5074397;28;20179;-67
2022/03/27 13:03:22;;;;;;;7.60;6.82;;;15.30;99.90;;;;;;5074560;28;20508;-67
2022/03/27 13:05:53;;;;;;;7.38;6.68;;;15.50;99.90;;;;;;5074355;28;20164;-68
2022/03/27 13:08:37;;;;;;;7.53;6.93;;;15.50;99.90;;;;;;5074059;28;20212;-68
2022/03/27 13:11:31;;;;;;;7.38;6.78;;;15.60;99.90;;;;;;5074580;28;20509;-68
2022/03/27 13:14:00;;;;;;;6.28;5.60;;;15.70;99.90;;;;;;5071601;28;20709;-68
2022/03/27 13:16:28;;;;;;;6.50;5.85;;;15.90;99.90;;;;;;5074276;28;20168;-68
2022/03/27 13:19:00;;;;;;;8.95;7.00;;;16.00;99.90;;;;;;5074171;28;20637;-68
2022/03/27 13:21:31;;;;;;;7.03;6.43;;;16.10;99.90;;;;;;5074106;28;20270;-68
2022/03/27 13:23:58;;;;;;;7.10;6.45;;;16.30;99.90;;;;;;5074248;28;20269;-68
2022/03/27 13:26:24;;;;;;;8.65;7.63;;;16.30;99.90;;;;;;5074023;28;20230;-68
2022/03/27 13:28:49;;;;;;;8.93;8.02;;;16.30;99.90;;;;;;5073561;28;20224;-68
2022/03/27 13:31:15;;;;;;;8.18;7.38;;;16.20;99.90;;;;;;5074017;28;20171;-68
2022/03/27 13:33:41;;;;;;;8.18;7.45;;;16.20;99.90;;;;;;5073811;28;20169;-68
2022/03/27 13:36:07;;;;;;;10.85;8.18;;;16.30;99.90;;;;;;5073913;28;20175;-68
2022/03/27 13:38:33;;;;;;;8.80;6.45;;;16.40;99.90;;;;;;5074177;28;20179;-68
2022/03/27 13:43:43;;;;;;;6.25;5.65;;;16.60;99.90;;;;;;5073585;28;20187;-70
2022/03/27 13:46:09;;;;;;;8.07;6.68;;;16.90;99.90;;;;;;5073625;28;20641;-70
2022/03/27 13:48:35;;;;;;;7.93;6.63;;;17.10;99.90;;;;;;5073888;28;20188;-70
2022/03/27 13:51:01;;;;;;;8.30;7.60;;;17.20;99.90;;;;;;5073685;28;20660;-70
2022/03/27 13:53:27;;;;;;;8.13;7.32;;;17.30;99.90;;;;;;5073727;28;20564;-70
2022/03/27 13:55:55;;;;;;;9.32;7.70;;;17.30;99.90;;;;;;5073856;28;20168;-70
2022/03/27 13:58:21;;;;;;;7.85;7.15;;;17.40;99.90;;;;;;5073738;28;20663;-70
2022/03/27 14:00:47;;;;;;;8.88;6.95;;;17.40;99.90;;;;;;5073573;28;20168;-70
2022/03/27 14:03:12;;;;;;;8.45;7.65;;;17.40;99.90;;;;;;5073468;28;20645;-70
2022/03/27 14:05:39;;;;;;;6.85;6.32;;;17.50;99.90;;;;;;5073646;28;20199;-70
2022/03/27 14:08:05;;;;;;;6.70;6.05;;;17.50;99.90;;;;;;5072148;28;20231;-70
2022/03/27 14:10:31;;;;;;;7.03;6.43;;;17.70;99.90;;;;;;5073579;28;20171;-70
2022/03/27 14:12:56;;;;;;;6.22;5.80;;;17.90;99.90;;;;;;5073548;28;20168;-70
2022/03/27 14:15:25;;;;;;;6.20;5.80;;;18.10;99.90;;;;;;5073575;28;20521;-70
2022/03/27 14:17:51;;;;;;;6.72;6.20;;;18.10;99.90;;;;;;5072314;28;20183;-70
2022/03/27 14:20:18;;;;;;;7.28;6.63;;;18.20;99.90;;;;;;5073387;28;20211;-70
2022/03/27 14:22:47;;;;;;;6.40;5.90;;;18.20;99.90;;;;;;5073324;28;20182;-70
2022/03/27 14:25:14;;;;;;;6.95;6.35;;;18.10;99.90;;;;;;5073576;28;20172;-70
2022/03/27 14:27:41;;;;;;;5.80;5.30;;;18.10;99.90;;;;;;5073349;28;20244;-70
2022/03/27 14:30:11;;;;;;;5.68;5.28;;;18.20;99.90;;;;;;5073262;28;20160;-70
2022/03/27 14:32:39;;;;;;;5.75;5.32;;;18.10;99.90;;;;;;5073454;28;20160;-70
2022/03/27 14:35:06;;;;;;;6.45;5.95;;;18.20;99.90;;;;;;5073248;28;20164;-70
2022/03/27 14:37:33;;;;;;;5.78;5.38;;;18.40;99.90;;;;;;5072166;28;20180;-70
2022/03/27 14:39:59;;;;;;;6.00;5.60;;;18.60;99.90;;;;;;5073106;28;20169;-70
2022/03/27 14:42:26;;;;;;;5.15;4.75;;;18.80;99.90;;;;;;5073365;28;20172;-70
2022/03/27 14:44:51;;;;;;;6.75;5.35;;;18.80;99.90;;;;;;5073375;28;20609;-70
2022/03/27 14:47:17;;;;;;;5.82;5.30;;;18.90;99.90;;;;;;5073189;28;20171;-70
2022/03/27 14:49:45;;;;;;;6.72;6.03;;;18.90;99.90;;;;;;5073273;28;20168;-70
2022/03/27 14:52:10;;;;;;;6.43;5.95;;;18.90;99.90;;;;;;5073048;28;20160;-70
2022/03/27 14:57:33;;;;;;;6.80;6.20;;;19.20;99.90;;;;;;5086912;28;20210;-70
2022/03/27 14:59:59;;;;;;;4.97;4.68;;;19.30;99.90;;;;;;5075694;28;20688;-70
2022/03/27 15:02:25;;;;;;;7.00;5.72;;;19.40;99.90;;;;;;5076851;28;20172;-70
2022/03/27 15:04:50;;;;;;;5.38;4.97;;;19.40;99.90;;;;;;5076818;28;20281;-70
2022/03/27 15:07:19;;;;;;;8.80;6.00;;;19.30;99.90;;;;;;5076445;28;20587;-70
2022/03/27 15:09:45;;;;;;;5.82;5.35;;;19.10;99.90;;;;;;5075516;28;20179;-70
2022/03/27 15:12:12;;;;;;;6.25;5.70;;;19.00;99.90;;;;;;5076726;28;20242;-70
2022/03/27 15:14:38;;;;;;;6.18;5.20;;;19.00;99.90;;;;;;5076681;28;20293;-70
2022/03/27 15:17:04;;;;;;;5.35;5.05;;;18.90;99.90;;;;;;5076484;28;20179;-70
2022/03/27 15:19:30;;;;;;;5.65;5.25;;;18.90;99.90;;;;;;5076470;28;20537;-70
2022/03/27 15:21:57;;;;;;;5.50;5.10;;;19.00;99.90;;;;;;5076502;28;20250;-70
2022/03/27 15:24:23;;;;;;;5.40;5.00;;;18.90;99.90;;;;;;5076473;28;20514;-70
2022/03/27 15:26:48;;;;;;;6.22;5.72;;;18.70;99.90;;;;;;5076404;28;20171;-70
2022/03/27 15:29:15;;;;;;;6.07;5.68;;;18.70;99.90;;;;;;5076286;28;20261;-70
2022/03/27 15:31:40;;;;;;;5.57;5.18;;;18.60;99.90;;;;;;5076367;28;20255;-70
2022/03/27 15:34:06;;;;;;;5.35;4.90;;;18.70;99.90;;;;;;5076177;28;20247;-70
2022/03/27 15:36:32;;;;;;;5.03;4.63;;;18.70;99.90;;;;;;5076051;28;20229;-69
2022/03/27 15:38:57;;;;;;;5.07;4.68;;;18.80;99.90;;;;;;5076142;28;20186;-69
2022/03/27 15:41:23;;;;;;;6.40;5.80;;;18.60;99.90;;;;;;5075918;28;20618;-69
2022/03/27 15:43:49;;;;;;;6.45;5.90;;;18.80;99.90;;;;;;5076284;28;20167;-69
2022/03/27 15:46:16;;;;;;;6.05;5.40;;;18.90;99.90;;;;;;5076064;28;20255;-70
2022/03/27 15:48:41;;;;;;;6.00;5.50;;;18.80;99.90;;;;;;5075664;28;20225;-70
2022/03/27 15:51:07;;;;;;;6.20;5.70;;;18.90;99.90;;;;;;5075963;28;20198;-70
2022/03/27 15:53:33;;;;;;;7.50;4.90;;;18.90;99.90;;;;;;5075952;28;20175;-70
2022/03/27 15:55:59;;;;;;;5.40;5.00;;;18.90;99.90;;;;;;5075910;28;20159;-69
2022/03/27 15:58:27;;;;;;;4.97;4.57;;;18.90;99.90;;;;;;5075798;28;20175;-70
2022/03/27 16:00:53;;;;;;;5.20;4.80;;;18.90;99.90;;;;;;5075784;28;20179;-70
2022/03/27 16:03:19;;;;;;;5.32;4.50;;;18.90;99.90;;;;;;5075587;28;20168;-70
2022/03/27 16:05:45;;;;;;;5.90;5.40;;;19.00;99.90;;;;;;5075458;28;20254;-70
2022/03/27 16:08:12;;;;;;;5.38;4.93;;;19.00;99.90;;;;;;5075358;28;20216;-70
2022/03/27 16:10:38;;;;;;;6.82;5.43;;;18.90;99.90;;;;;;5075545;28;20254;-69
2022/03/27 16:13:03;;;;;;;6.18;5.68;;;18.90;99.90;;;;;;5074371;28;20251;-69
2022/03/27 16:15:29;;;;;;;4.60;4.20;;;18.80;99.90;;;;;;5075303;28;20172;-70
2022/03/27 16:17:55;;;;;;;4.70;4.30;;;18.70;99.90;;;;;;5075618;28;20164;-70
2022/03/27 16:20:21;;;;;;;5.25;4.88;;;18.60;99.90;;;;;;5075284;28;20192;-69
2022/03/27 16:22:47;;;;;;;5.43;5.03;;;18.60;99.90;;;;;;5075306;28;20637;-70
2022/03/27 16:25:12;;;;;;;6.13;5.43;;;18.50;99.90;;;;;;5075253;28;20584;-70
2022/03/27 16:27:38;;;;;;;5.85;5.45;;;18.50;99.90;;;;;;5075180;28;20199;-70
2022/03/27 16:30:05;;;;;;;5.80;5.30;;;18.40;99.90;;;;;;5075267;28;20271;-69
2022/03/27 16:32:31;;;;;;;7.50;5.18;;;18.40;99.90;;;;;;5074887;28;20160;-70
2022/03/27 16:34:58;;;;;;;6.22;5.47;;;18.30;99.90;;;;;;5075254;28;20164;-70
2022/03/27 16:37:25;;;;;;;5.53;5.03;;;18.20;99.90;;;;;;5075115;28;20643;-70
2022/03/27 16:39:51;;;;;;;5.90;5.50;;;18.20;99.90;;;;;;5075024;28;20222;-69
2022/03/27 16:42:17;;;;;;;5.68;5.18;;;18.10;99.90;;;;;;5073760;28;20617;-69
2022/03/27 16:44:42;;;;;;;5.68;5.28;;;18.10;99.90;;;;;;5075150;28;20253;-70
2022/03/27 16:47:08;;;;;;;5.28;4.88;;;18.10;99.90;;;;;;5074623;28;20172;-70
2022/03/27 16:49:34;;;;;;;4.90;4.60;;;18.20;99.90;;;;;;5074514;28;20178;-70
2022/03/27 16:51:59;;;;;;;5.57;5.15;;;18.20;99.90;;;;;;5074509;28;20190;-70
2022/03/27 16:54:25;;;;;;;5.88;5.47;;;18.20;99.90;;;;;;5074488;28;20171;-70
2022/03/27 16:56:51;;;;;;;6.15;5.65;;;18.10;99.90;;;;;;5074530;28;20633;-68
2022/03/27 16:59:16;;;;;;;5.70;5.28;;;18.00;99.90;;;;;;5074654;28;20168;-68
2022/03/27 17:01:43;;;;;;;6.80;5.75;;;17.90;99.90;;;;;;5074505;28;20172;-68
2022/03/27 17:04:09;;;;;;;12.30;6.22;;;17.80;99.90;;;;;;5074517;28;20255;-69
2022/03/27 17:06:35;;;;;;;6.45;5.78;;;17.50;99.90;;;;;;5072829;28;20270;-69
2022/03/27 17:09:01;;;;;;;6.72;6.13;;;17.50;99.90;;;;;;5073827;28;20222;-70
2022/03/27 17:11:27;;;;;;;7.50;6.80;;;17.50;99.90;;;;;;5073852;28;20239;-70
2022/03/27 17:13:53;;;;;;;7.25;6.50;;;17.30;99.90;;;;;;5074212;28;20198;-70
2022/03/27 17:16:18;;;;;;;6.00;5.50;;;17.40;99.90;;;;;;5073921;28;20621;-71
2022/03/27 17:18:44;;;;;;;6.38;5.88;;;17.20;99.90;;;;;;5073597;28;20172;-71
2022/03/27 17:21:10;;;;;;;7.65;6.95;;;17.10;99.90;;;;;;5074057;28;20309;-70
2022/03/27 17:23:35;;;;;;;7.13;6.43;;;17.00;99.90;;;;;;5074115;28;20294;-70
2022/03/27 17:26:01;;;;;;;7.40;6.75;;;17.00;99.90;;;;;;5073849;28;20192;-70
2022/03/27 17:28:27;;;;;;;6.68;6.07;;;16.80;99.90;;;;;;5073024;28;20271;-70
2022/03/27 17:30:52;;;;;;;11.23;6.70;;;16.70;99.90;;;;;;5073164;28;20168;-70
2022/03/27 17:33:18;;;;;;;6.68;5.97;;;16.60;99.90;;;;;;5072367;28;20164;-70
2022/03/27 17:35:44;;;;;;;8.18;5.80;;;16.50;99.90;;;;;;5073640;28;20629;-70
2022/03/27 17:38:10;;;;;;;6.15;5.60;;;16.30;99.90;;;;;;5073556;28;20172;-70
2022/03/27 17:40:36;;;;;;;6.95;6.35;;;16.10;99.90;;;;;;5073571;28;20164;-70
2022/03/27 17:43:05;;;;;;;7.57;6.75;;;15.90;99.90;;;;;;5073518;28;20187;-70
2022/03/27 17:45:30;;;;;;;7.05;6.28;;;15.80;99.90;;;;;;5073450;28;20171;-70
2022/03/27 17:47:57;;;;;;;7.38;6.78;;;15.70;99.90;;;;;;5073466;28;20196;-70
2022/03/27 17:50:23;;;;;;;7.75;6.70;;;15.50;99.90;;;;;;5073331;28;20165;-70
2022/03/27 17:52:48;;;;;;;7.13;6.53;;;15.40;99.90;;;;;;5073512;28;20165;-70
2022/03/27 17:55:14;;;;;;;6.53;5.85;;;15.20;99.90;;;;;;5072021;28;20564;-70
2022/03/27 17:57:40;;;;;;;6.13;5.63;;;15.00;99.90;;;;;;5073133;28;20169;-70
2022/03/27 18:00:08;;;;;;;6.15;5.65;;;14.90;99.90;;;;;;5073193;28;20558;-70
2022/03/27 18:02:34;;;;;;;6.30;5.70;;;14.70;99.90;;;;;;5073307;28;20199;-70
2022/03/27 18:05:02;;;;;;;5.55;5.05;;;14.50;99.90;;;;;;5073276;28;20169;-70
